NCAR-RAP Real-Time Weather Data

Output produced by METARs form (30 April 2017  15:03 UTC)
found at http://weather.rap.ucar.edu/surface/
 
Conditions at: KSRQ observed 30 April 2017  14:53 UTC
Temperature: 30.0°C (86°F)
Dewpoint: 19.4°C (67°F) [RH = 53%]
Pressure (altimeter): 30.05 inches Hg (1017.7 mb)
[Sea-level pressure: 1017.6 mb]
Winds: from the ESE (110 degrees) at 20 MPH (17 knots; 8.8 m/s)
gusting to 29 MPH (25 knots; 13.0 m/s)
Visibility: 10 or more miles (16+ km)
Ceiling: at least 12,000 feet AGL
Clouds: sky clear below 12,000 feet AGL
Present Weather: no significant weather observed at this time
KSRQ 301453Z 11017G25KT 10SM CLR 30/19 A3005 RMK AO2 SLP176 T03000194 56012

Conditions at: KSRQ observed 30 April 2017  13:53 UTC
Temperature: 26.7°C (80°F)
Dewpoint: 20.0°C (68°F) [RH = 67%]
Pressure (altimeter): 30.06 inches Hg (1018.0 mb)
[Sea-level pressure: 1017.8 mb]
Winds: from the SE (130 degrees) at 16 MPH (14 knots; 7.3 m/s)
gusting to 26 MPH (23 knots; 12.0 m/s)
Visibility: 10 or more miles (16+ km)
Ceiling: at least 12,000 feet AGL
Clouds: sky clear below 12,000 feet AGL
Present Weather: no significant weather observed at this time
KSRQ 301353Z 13014G23KT 10SM CLR 27/20 A3006 RMK AO2 SLP178 T02670200

Conditions at: KSRQ observed 30 April 2017  12:53 UTC
Temperature: 25.0°C (77°F)
Dewpoint: 20.6°C (69°F) [RH = 77%]
Pressure (altimeter): 30.07 inches Hg (1018.4 mb)
[Sea-level pressure: 1018.3 mb]
Winds: from the ESE (120 degrees) at 15 MPH (13 knots; 6.8 m/s)
Visibility: 10 or more miles (16+ km)
Ceiling: at least 12,000 feet AGL
Clouds: sky clear below 12,000 feet AGL
Present Weather: no significant weather observed at this time
KSRQ 301253Z 12013KT 10SM CLR 25/21 A3007 RMK AO2 SLP183 T02500206

Conditions at: KSRQ observed 30 April 2017  11:53 UTC
Temperature: 23.3°C (74°F)
Dewpoint: 20.6°C (69°F) [RH = 85%]
Pressure (altimeter): 30.09 inches Hg (1019.0 mb)
[Sea-level pressure: 1018.8 mb]
Winds: from the ESE (120 degrees) at 9 MPH (8 knots; 4.2 m/s)
Visibility: 10 or more miles (16+ km)
Ceiling: at least 12,000 feet AGL
Clouds: sky clear below 12,000 feet AGL
Present Weather: no significant weather observed at this time
KSRQ 301153Z 12008KT 10SM CLR 23/21 A3009 RMK AO2 SLP188 T02330206 10239 20228 52013

Conditions at: KSRQ observed 30 April 2017  10:53 UTC
Temperature: 23.3°C (74°F)
Dewpoint: 20.6°C (69°F) [RH = 85%]
Pressure (altimeter): 30.08 inches Hg (1018.7 mb)
[Sea-level pressure: 1018.4 mb]
Winds: from the ESE (120 degrees) at 10 MPH (9 knots; 4.7 m/s)
Visibility: 10 or more miles (16+ km)
Ceiling: at least 12,000 feet AGL
Clouds: few clouds at 1300 feet AGL
few clouds at 2700 feet AGL
scattered clouds at 7000 feet AGL
Present Weather: no significant weather observed at this time
KSRQ 301053Z 12009KT 10SM FEW013 FEW027 SCT070 23/21 A3008 RMK AO2 SLP184 T02330206

Conditions at: KSRQ observed 30 April 2017  09:53 UTC
Temperature: 23.3°C (74°F)
Dewpoint: 21.1°C (70°F) [RH = 87%]
Pressure (altimeter): 30.06 inches Hg (1018.0 mb)
[Sea-level pressure: 1017.9 mb]
Winds: from the ESE (110 degrees) at 13 MPH (11 knots; 5.7 m/s)
Visibility: 10 or more miles (16+ km)
Ceiling: 6500 feet AGL
Clouds: few clouds at 1300 feet AGL
broken clouds at 6500 feet AGL
Present Weather: no significant weather observed at this time
KSRQ 300953Z 11011KT 10SM FEW013 BKN065 23/21 A3006 RMK AO2 SLP179 T02330211

Conditions at: KSRQ observed 30 April 2017  08:53 UTC
Temperature: 23.3°C (74°F)
Dewpoint: 21.1°C (70°F) [RH = 87%]
Pressure (altimeter): 30.05 inches Hg (1017.7 mb)
[Sea-level pressure: 1017.5 mb]
Winds: from the ESE (110 degrees) at 13 MPH (11 knots; 5.7 m/s)
Visibility: 10 or more miles (16+ km)
Ceiling: at least 12,000 feet AGL
Clouds: sky clear below 12,000 feet AGL
Present Weather: automated observation with no human augmentation;
there may or may not be significant weather present at this time
KSRQ 300853Z AUTO 11011KT 10SM CLR 23/21 A3005 RMK AO2 SLP175 T02330211 55004

Conditions at: KSRQ observed 30 April 2017  07:53 UTC
Temperature: 23.3°C (74°F)
Dewpoint: 20.6°C (69°F) [RH = 85%]
Pressure (altimeter): 30.04 inches Hg (1017.4 mb)
[Sea-level pressure: 1017.2 mb]
Winds: from the ESE (120 degrees) at 14 MPH (12 knots; 6.2 m/s)
Visibility: 10 or more miles (16+ km)
Ceiling: at least 12,000 feet AGL
Clouds: sky clear below 12,000 feet AGL
Present Weather: automated observation with no human augmentation;
there may or may not be significant weather present at this time
KSRQ 300753Z AUTO 12012KT 10SM CLR 23/21 A3004 RMK AO2 SLP172 T02330206

Conditions at: KSRQ observed 30 April 2017  06:53 UTC
Temperature: 23.3°C (74°F)
Dewpoint: 20.6°C (69°F) [RH = 85%]
Pressure (altimeter): 30.04 inches Hg (1017.4 mb)
[Sea-level pressure: 1017.2 mb]
Winds: from the ESE (120 degrees) at 15 MPH (13 knots; 6.8 m/s)
Visibility: 10 or more miles (16+ km)
Ceiling: at least 12,000 feet AGL
Clouds: sky clear below 12,000 feet AGL
Present Weather: automated observation with no human augmentation;
there may or may not be significant weather present at this time
KSRQ 300653Z AUTO 12013KT 10SM CLR 23/21 A3004 RMK AO2 SLP172 T02330206

Conditions at: KSRQ observed 30 April 2017  05:53 UTC
Temperature: 23.9°C (75°F)
Dewpoint: 20.6°C (69°F) [RH = 82%]
Pressure (altimeter): 30.06 inches Hg (1018.0 mb)
[Sea-level pressure: 1017.9 mb]
Winds: from the ESE (120 degrees) at 15 MPH (13 knots; 6.8 m/s)
gusting to 23 MPH (20 knots; 10.4 m/s)
Visibility: 10 or more miles (16+ km)
Ceiling: at least 12,000 feet AGL
Clouds: sky clear below 12,000 feet AGL
Present Weather: automated observation with no human augmentation;
there may or may not be significant weather present at this time
KSRQ 300553Z AUTO 12013G20KT 10SM CLR 24/21 A3006 RMK AO2 SLP179 T02390206 10289 20239 58003

Conditions at: KSRQ observed 30 April 2017  04:53 UTC
Temperature: 24.4°C (76°F)
Dewpoint: 20.0°C (68°F) [RH = 77%]
Pressure (altimeter): 30.07 inches Hg (1018.4 mb)
[Sea-level pressure: 1018.2 mb]
Winds: from the ESE (120 degrees) at 14 MPH (12 knots; 6.2 m/s)
Visibility: 10 or more miles (16+ km)
Ceiling: at least 12,000 feet AGL
Clouds: sky clear below 12,000 feet AGL
Present Weather: automated observation with no human augmentation;
there may or may not be significant weather present at this time
KSRQ 300453Z AUTO 12012KT 10SM CLR 24/20 A3007 RMK AO2 SLP182 T02440200 403560228

Conditions at: KSRQ observed 30 April 2017  03:53 UTC
Temperature: 25.0°C (77°F)
Dewpoint: 18.9°C (66°F) [RH = 69%]
Pressure (altimeter): 30.08 inches Hg (1018.7 mb)
[Sea-level pressure: 1018.7 mb]
Winds: from the ESE (120 degrees) at 15 MPH (13 knots; 6.8 m/s)
gusting to 22 MPH (19 knots; 9.9 m/s)
Visibility: 10 or more miles (16+ km)
Ceiling: at least 12,000 feet AGL
Clouds: sky clear below 12,000 feet AGL
Present Weather: automated observation with no human augmentation;
there may or may not be significant weather present at this time
KSRQ 300353Z AUTO 12013G19KT 10SM CLR 25/19 A3008 RMK AO2 SLP187 T02500189

Conditions at: KSRQ observed 30 April 2017  02:53 UTC
Temperature: 26.1°C (79°F)
Dewpoint: 17.8°C (64°F) [RH = 60%]
Pressure (altimeter): 30.07 inches Hg (1018.4 mb)
[Sea-level pressure: 1018.2 mb]
Winds: from the ESE (120 degrees) at 16 MPH (14 knots; 7.3 m/s)
Visibility: 10 or more miles (16+ km)
Ceiling: at least 12,000 feet AGL
Clouds: sky clear below 12,000 feet AGL
Present Weather: automated observation with no human augmentation;
there may or may not be significant weather present at this time
KSRQ 300253Z AUTO 12014KT 10SM CLR 26/18 A3007 RMK AO2 SLP182 T02610178 51013

Conditions at: KSRQ observed 30 April 2017  01:53 UTC
Temperature: 27.2°C (81°F)
Dewpoint: 16.1°C (61°F) [RH = 51%]
Pressure (altimeter): 30.07 inches Hg (1018.4 mb)
[Sea-level pressure: 1018.0 mb]
Winds: from the ESE (120 degrees) at 16 MPH (14 knots; 7.3 m/s)
Visibility: 10 or more miles (16+ km)
Ceiling: at least 12,000 feet AGL
Clouds: sky clear below 12,000 feet AGL
Present Weather: automated observation with no human augmentation;
there may or may not be significant weather present at this time
KSRQ 300153Z AUTO 12014KT 10SM CLR 27/16 A3007 RMK AO2 SLP180 T02720161

Conditions at: KSRQ observed 30 April 2017  00:53 UTC
Temperature: 28.3°C (83°F)
Dewpoint: 16.1°C (61°F) [RH = 48%]
Pressure (altimeter): 30.04 inches Hg (1017.4 mb)
[Sea-level pressure: 1017.1 mb]
Winds: from the ESE (110 degrees) at 15 MPH (13 knots; 6.8 m/s)
Visibility: 10 or more miles (16+ km)
Ceiling: at least 12,000 feet AGL
Clouds: sky clear below 12,000 feet AGL
Present Weather: automated observation with no human augmentation;
there may or may not be significant weather present at this time
KSRQ 300053Z AUTO 11013KT 10SM CLR 28/16 A3004 RMK AO2 SLP171 T02830161

Conditions at: KSRQ observed 29 April 2017  23:53 UTC
Temperature: 27.8°C (82°F)
Dewpoint: 20.6°C (69°F) [RH = 65%]
Pressure (altimeter): 30.03 inches Hg (1017.0 mb)
[Sea-level pressure: 1016.9 mb]
Winds: from the SSW (200 degrees) at 6 MPH (5 knots; 2.6 m/s)
Visibility: 10 or more miles (16+ km)
Ceiling: at least 12,000 feet AGL
Clouds: sky clear below 12,000 feet AGL
Present Weather: automated observation with no human augmentation;
there may or may not be significant weather present at this time
KSRQ 292353Z AUTO 20005KT 10SM CLR 28/21 A3003 RMK AO2 SLP169 T02780206 10356 20278 53004

Conditions at: KSRQ observed 29 April 2017  22:53 UTC
Temperature: 28.9°C (84°F)
Dewpoint: 20.0°C (68°F) [RH = 59%]
Pressure (altimeter): 30.02 inches Hg (1016.7 mb)
[Sea-level pressure: 1016.4 mb]
Winds: from the S (190 degrees) at 13 MPH (11 knots; 5.7 m/s)
Visibility: 10 or more miles (16+ km)
Ceiling: at least 12,000 feet AGL
Clouds: few clouds at 7500 feet AGL
Present Weather: automated observation with no human augmentation;
there may or may not be significant weather present at this time
KSRQ 292253Z AUTO 19011KT 10SM FEW075 29/20 A3002 RMK AO2 SLP164 T02890200

Conditions at: KSRQ observed 29 April 2017  21:53 UTC
Temperature: 29.4°C (85°F)
Dewpoint: 20.0°C (68°F) [RH = 57%]
Pressure (altimeter): 30.02 inches Hg (1016.7 mb)
[Sea-level pressure: 1016.3 mb]
Winds: from the SSW (210 degrees) at 13 MPH (11 knots; 5.7 m/s)
Visibility: 10 or more miles (16+ km)
Ceiling: at least 12,000 feet AGL
Clouds: scattered clouds at 9500 feet AGL
Present Weather: automated observation with no human augmentation;
there may or may not be significant weather present at this time
KSRQ 292153Z AUTO 21011KT 10SM SCT095 29/20 A3002 RMK AO2 SLP163 T02940200

Conditions at: KSRQ observed 29 April 2017  20:53 UTC
Temperature: 29.4°C (85°F)
Dewpoint: 20.6°C (69°F) [RH = 59%]
Pressure (altimeter): 30.02 inches Hg (1016.7 mb)
[Sea-level pressure: 1016.5 mb]
Winds: from the SW (220 degrees) at 15 MPH (13 knots; 6.8 m/s)
Visibility: 10 or more miles (16+ km)
Ceiling: 9500 feet AGL
Clouds: scattered clouds at 8000 feet AGL
broken clouds at 9500 feet AGL
Present Weather: automated observation with no human augmentation;
there may or may not be significant weather present at this time
KSRQ 292053Z AUTO 22013KT 10SM SCT080 BKN095 29/21 A3002 RMK AO2 SLP165 T02940206 56016

Conditions at: KSRQ observed 29 April 2017  19:53 UTC
Temperature: 28.9°C (84°F)
Dewpoint: 20.6°C (69°F) [RH = 61%]
Pressure (altimeter): 30.03 inches Hg (1017.0 mb)
[Sea-level pressure: 1016.9 mb]
Winds: from the SSW (210 degrees) at 15 MPH (13 knots; 6.8 m/s)
Visibility: 10 or more miles (16+ km)
Ceiling: at least 12,000 feet AGL
Clouds: few clouds at 7000 feet AGL
Present Weather: automated observation with no human augmentation;
there may or may not be significant weather present at this time
KSRQ 291953Z AUTO 21013KT 10SM FEW070 29/21 A3003 RMK AO2 WSHFT 1846 SLP169 T02890206

Conditions at: KSRQ observed 29 April 2017  19:06 UTC
Temperature: 30.0°C (86°F)
Dewpoint: 20.0°C (68°F) [RH = 55%]
Pressure (altimeter): 30.05 inches Hg (1017.7 mb)
Winds: from the SSW (210 degrees) at 8 MPH (7 knots; 3.6 m/s)
Visibility: 10 or more miles (16+ km)
Ceiling: 6500 feet AGL
Clouds: broken clouds at 6500 feet AGL
broken clouds at 8000 feet AGL
Present Weather: automated observation with no human augmentation;
there may or may not be significant weather present at this time
KSRQ 291906Z AUTO 21007KT 10SM BKN065 BKN080 30/20 A3005 RMK AO2 WSHFT 1846 T03000200

Conditions at: KSRQ observed 29 April 2017  18:53 UTC
Temperature: 34.4°C (94°F)
Dewpoint: 15.6°C (60°F) [RH = 33%]
Pressure (altimeter): 30.05 inches Hg (1017.7 mb)
[Sea-level pressure: 1017.4 mb]
Winds: from the SE (140 degrees) at 16 MPH (14 knots; 7.3 m/s)
gusting to 23 MPH (20 knots; 10.4 m/s)
Visibility: 10 or more miles (16+ km)
Ceiling: at least 12,000 feet AGL
Clouds: scattered clouds at 7000 feet AGL
Present Weather: no significant weather observed at this time
KSRQ 291853Z 14014G20KT 10SM SCT070 34/16 A3005 RMK AO2 SLP174 T03440156

Conditions at: KSRQ observed 29 April 2017  17:53 UTC
Temperature: 34.4°C (94°F)
Dewpoint: 15.6°C (60°F) [RH = 33%]
Pressure (altimeter): 30.07 inches Hg (1018.4 mb)
[Sea-level pressure: 1018.1 mb]
Winds: from the SE (130 degrees) at 14 MPH (12 knots; 6.2 m/s)
gusting to 26 MPH (23 knots; 12.0 m/s)
Visibility: 10 or more miles (16+ km)
Ceiling: at least 12,000 feet AGL
Clouds: scattered clouds at 6000 feet AGL
Present Weather: no significant weather observed at this time
KSRQ 291753Z 13012G23KT 10SM SCT060 34/16 A3007 RMK AO2 SLP181 T03440156 10350 20228 58011

Conditions at: KSRQ observed 29 April 2017  16:53 UTC
Temperature: 33.3°C (92°F)
Dewpoint: 16.7°C (62°F) [RH = 37%]
Pressure (altimeter): 30.08 inches Hg (1018.7 mb)
[Sea-level pressure: 1018.6 mb]
Winds: from the ESE (120 degrees) at 15 MPH (13 knots; 6.8 m/s)
gusting to 23 MPH (20 knots; 10.4 m/s)
Visibility: 10 or more miles (16+ km)
Ceiling: at least 12,000 feet AGL
Clouds: few clouds at 5500 feet AGL
Present Weather: no significant weather observed at this time
KSRQ 291653Z 12013G20KT 10SM FEW055 33/17 A3008 RMK AO2 PK WND 14026/1609 SLP186 T03330167

Conditions at: KSRQ observed 29 April 2017  15:53 UTC
Temperature: 32.8°C (91°F)
Dewpoint: 17.8°C (64°F) [RH = 41%]
Pressure (altimeter): 30.09 inches Hg (1019.0 mb)
[Sea-level pressure: 1018.8 mb]
Winds: from the ESE (120 degrees) at 14 MPH (12 knots; 6.2 m/s)
gusting to 25 MPH (22 knots; 11.4 m/s)
Visibility: 10 or more miles (16+ km)
Ceiling: at least 12,000 feet AGL
Clouds: few clouds at 4500 feet AGL
Present Weather: no significant weather observed at this time
KSRQ 291553Z 12012G22KT 10SM FEW045 33/18 A3009 RMK AO2 SLP188 T03280178

Conditions at: KSRQ observed 29 April 2017  14:53 UTC
Temperature: 30.6°C (87°F)
Dewpoint: 19.4°C (67°F) [RH = 51%]
Pressure (altimeter): 30.10 inches Hg (1019.4 mb)
[Sea-level pressure: 1019.2 mb]
Winds: from the ESE (120 degrees) at 18 MPH (16 knots; 8.3 m/s)
gusting to 25 MPH (22 knots; 11.4 m/s)
Visibility: 10 or more miles (16+ km)
Ceiling: at least 12,000 feet AGL
Clouds: few clouds at 3100 feet AGL
Present Weather: no significant weather observed at this time
KSRQ 291453Z 12016G22KT 10SM FEW031 31/19 A3010 RMK AO2 SLP192 T03060194 50000

Conditions at: KSRQ observed 29 April 2017  13:53 UTC
Temperature: 28.3°C (83°F)
Dewpoint: 21.1°C (70°F) [RH = 65%]
Pressure (altimeter): 30.10 inches Hg (1019.4 mb)
[Sea-level pressure: 1019.3 mb]
Winds: from the SE (130 degrees) at 20 MPH (17 knots; 8.8 m/s)
Visibility: 10 or more miles (16+ km)
Ceiling: at least 12,000 feet AGL
Clouds: few clouds at 1900 feet AGL
Present Weather: no significant weather observed at this time
KSRQ 291353Z 13017KT 10SM FEW019 28/21 A3010 RMK AO2 SLP193 T02830211

Conditions at: KSRQ observed 29 April 2017  12:53 UTC
Temperature: 25.0°C (77°F)
Dewpoint: 21.7°C (71°F) [RH = 82%]
Pressure (altimeter): 30.10 inches Hg (1019.4 mb)
[Sea-level pressure: 1019.3 mb]
Winds: from the SE (130 degrees) at 18 MPH (16 knots; 8.3 m/s)
gusting to 25 MPH (22 knots; 11.4 m/s)
Visibility: 10 or more miles (16+ km)
Ceiling: at least 12,000 feet AGL
Clouds: few clouds at 1100 feet AGL
Present Weather: no significant weather observed at this time
KSRQ 291253Z 13016G22KT 10SM FEW011 25/22 A3010 RMK AO2 SLP193 T02500217

Conditions at: KSRQ observed 29 April 2017  11:53 UTC
Temperature: 22.8°C (73°F)
Dewpoint: 21.7°C (71°F) [RH = 94%]
Pressure (altimeter): 30.10 inches Hg (1019.4 mb)
[Sea-level pressure: 1019.2 mb]
Winds: from the ESE (110 degrees) at 13 MPH (11 knots; 5.7 m/s)
Visibility: 10 or more miles (16+ km)
Ceiling: at least 12,000 feet AGL
Clouds: few clouds at 800 feet AGL
Present Weather: no significant weather observed at this time
KSRQ 291153Z 11011KT 10SM FEW008 23/22 A3010 RMK AO2 SLP192 T02280217 10244 20228 53014

Conditions at: KSRQ observed 29 April 2017  11:01 UTC
Temperature: 22.8°C (73°F)
Dewpoint: 21.1°C (70°F) [RH = 90%]
Pressure (altimeter): 30.08 inches Hg (1018.7 mb)
Winds: from the ESE (120 degrees) at 15 MPH (13 knots; 6.8 m/s)
Visibility: 10 or more miles (16+ km)
Ceiling: at least 12,000 feet AGL
Clouds: scattered clouds at 700 feet AGL
Present Weather: no significant weather observed at this time
KSRQ 291101Z 12013KT 10SM SCT007 23/21 A3008 RMK AO2 T02280211

Conditions at: KSRQ observed 29 April 2017  10:53 UTC
Temperature: 22.8°C (73°F)
Dewpoint: 21.1°C (70°F) [RH = 90%]
Pressure (altimeter): 30.07 inches Hg (1018.4 mb)
[Sea-level pressure: 1018.2 mb]
Winds: from the ESE (120 degrees) at 13 MPH (11 knots; 5.7 m/s)
Visibility: 10 or more miles (16+ km)
Ceiling: 600 feet AGL
Clouds: broken clouds at 600 feet AGL
Present Weather: no significant weather observed at this time
KSRQ 291053Z 12011KT 10SM BKN006 23/21 A3007 RMK AO2 SLP182 T02280211

Conditions at: KSRQ observed 29 April 2017  09:53 UTC
Temperature: 22.8°C (73°F)
Dewpoint: 21.1°C (70°F) [RH = 90%]
Pressure (altimeter): 30.06 inches Hg (1018.0 mb)
[Sea-level pressure: 1017.9 mb]
Winds: from the ESE (110 degrees) at 12 MPH (10 knots; 5.2 m/s)
Visibility: 10 or more miles (16+ km)
Ceiling: 700 feet AGL
Clouds: overcast cloud deck at 700 feet AGL
Present Weather: automated observation with no human augmentation;
there may or may not be significant weather present at this time
KSRQ 290953Z AUTO 11010KT 10SM OVC007 23/21 A3006 RMK AO2 SLP179 T02280211

Conditions at: KSRQ observed 29 April 2017  09:22 UTC
Temperature: 22.8°C (73°F)
Dewpoint: 21.7°C (71°F) [RH = 94%]
Pressure (altimeter): 30.06 inches Hg (1018.0 mb)
Winds: from the ESE (110 degrees) at 12 MPH (10 knots; 5.2 m/s)
Visibility: 10 or more miles (16+ km)
Ceiling: 900 feet AGL
Clouds: broken clouds at 900 feet AGL
overcast cloud deck at 1400 feet AGL
Present Weather: automated observation with no human augmentation;
there may or may not be significant weather present at this time
KSRQ 290922Z AUTO 11010KT 10SM BKN009 OVC014 23/22 A3006 RMK AO2 T02280217

Conditions at: KSRQ observed 29 April 2017  09:01 UTC
Temperature: 22.8°C (73°F)
Dewpoint: 21.1°C (70°F) [RH = 90%]
Pressure (altimeter): 30.06 inches Hg (1018.0 mb)
Winds: from the ESE (110 degrees) at 10 MPH (9 knots; 4.7 m/s)
Visibility: 10 or more miles (16+ km)
Ceiling: 1300 feet AGL
Clouds: scattered clouds at 900 feet AGL
broken clouds at 1300 feet AGL
Present Weather: automated observation with no human augmentation;
there may or may not be significant weather present at this time
KSRQ 290901Z AUTO 11009KT 10SM SCT009 BKN013 23/21 A3006 RMK AO2 T02280211

Conditions at: KSRQ observed 29 April 2017  08:53 UTC
Temperature: 22.8°C (73°F)
Dewpoint: 21.1°C (70°F) [RH = 90%]
Pressure (altimeter): 30.06 inches Hg (1018.0 mb)
[Sea-level pressure: 1017.7 mb]
Winds: from the ESE (110 degrees) at 9 MPH (8 knots; 4.2 m/s)
Visibility: 10 or more miles (16+ km)
Ceiling: 1700 feet AGL
Clouds: scattered clouds at 1000 feet AGL
broken clouds at 1700 feet AGL
Present Weather: automated observation with no human augmentation;
there may or may not be significant weather present at this time
KSRQ 290853Z AUTO 11008KT 10SM SCT010 BKN017 23/21 A3006 RMK AO2 SLP177 T02280211 56006

Conditions at: KSRQ observed 29 April 2017  08:20 UTC
Temperature: 22.8°C (73°F)
Dewpoint: 21.1°C (70°F) [RH = 90%]
Pressure (altimeter): 30.06 inches Hg (1018.0 mb)
Winds: from the ESE (110 degrees) at 9 MPH (8 knots; 4.2 m/s)
Visibility: 10 or more miles (16+ km)
Ceiling: 1100 feet AGL
Clouds: broken clouds at 1100 feet AGL
broken clouds at 1800 feet AGL
Present Weather: automated observation with no human augmentation;
there may or may not be significant weather present at this time
KSRQ 290820Z AUTO 11008KT 10SM BKN011 BKN018 23/21 A3006 RMK AO2 T02280211

Conditions at: KSRQ observed 29 April 2017  07:53 UTC
Temperature: 22.8°C (73°F)
Dewpoint: 21.1°C (70°F) [RH = 90%]
Pressure (altimeter): 30.06 inches Hg (1018.0 mb)
[Sea-level pressure: 1018.0 mb]
Winds: from the ESE (110 degrees) at 9 MPH (8 knots; 4.2 m/s)
Visibility: 10 or more miles (16+ km)
Ceiling: at least 12,000 feet AGL
Clouds: sky clear below 12,000 feet AGL
Present Weather: automated observation with no human augmentation;
there may or may not be significant weather present at this time
KSRQ 290753Z AUTO 11008KT 10SM CLR 23/21 A3006 RMK AO2 SLP180 T02280211

Conditions at: KSRQ observed 29 April 2017  06:53 UTC
Temperature: 23.9°C (75°F)
Dewpoint: 21.1°C (70°F) [RH = 84%]
Pressure (altimeter): 30.06 inches Hg (1018.0 mb)
[Sea-level pressure: 1018.0 mb]
Winds: from the ESE (110 degrees) at 10 MPH (9 knots; 4.7 m/s)
Visibility: 10 or more miles (16+ km)
Ceiling: at least 12,000 feet AGL
Clouds: sky clear below 12,000 feet AGL
Present Weather: automated observation with no human augmentation;
there may or may not be significant weather present at this time
KSRQ 290653Z AUTO 11009KT 10SM CLR 24/21 A3006 RMK AO2 SLP180 T02390211

Conditions at: KSRQ observed 29 April 2017  05:53 UTC
Temperature: 23.9°C (75°F)
Dewpoint: 21.1°C (70°F) [RH = 84%]
Pressure (altimeter): 30.07 inches Hg (1018.4 mb)
[Sea-level pressure: 1018.3 mb]
Winds: from the ESE (110 degrees) at 9 MPH (8 knots; 4.2 m/s)
Visibility: 10 or more miles (16+ km)
Ceiling: at least 12,000 feet AGL
Clouds: sky clear below 12,000 feet AGL
Present Weather: automated observation with no human augmentation;
there may or may not be significant weather present at this time
KSRQ 290553Z AUTO 11008KT 10SM CLR 24/21 A3007 RMK AO2 SLP183 T02390211 10278 20239 50002

Conditions at: KSRQ observed 29 April 2017  04:53 UTC
Temperature: 25.0°C (77°F)
Dewpoint: 20.6°C (69°F) [RH = 77%]
Pressure (altimeter): 30.08 inches Hg (1018.7 mb)
[Sea-level pressure: 1018.4 mb]
Winds: from the ESE (120 degrees) at 13 MPH (11 knots; 5.7 m/s)
Visibility: 10 or more miles (16+ km)
Ceiling: at least 12,000 feet AGL
Clouds: sky clear below 12,000 feet AGL
Present Weather: automated observation with no human augmentation;
there may or may not be significant weather present at this time
KSRQ 290453Z AUTO 12011KT 10SM CLR 25/21 A3008 RMK AO2 SLP184 T02500206 403170206

Conditions at: KSRQ observed 29 April 2017  03:53 UTC
Temperature: 26.1°C (79°F)
Dewpoint: 20.0°C (68°F) [RH = 69%]
Pressure (altimeter): 30.07 inches Hg (1018.4 mb)
[Sea-level pressure: 1018.2 mb]
Winds: from the ESE (120 degrees) at 15 MPH (13 knots; 6.8 m/s)
Visibility: 10 or more miles (16+ km)
Ceiling: at least 12,000 feet AGL
Clouds: sky clear below 12,000 feet AGL
Present Weather: no significant weather observed at this time
KSRQ 290353Z 12013KT 10SM CLR 26/20 A3007 RMK AO2 SLP182 T02610200

Conditions at: KSRQ observed 29 April 2017  02:53 UTC
Temperature: 26.7°C (80°F)
Dewpoint: 19.4°C (67°F) [RH = 64%]
Pressure (altimeter): 30.07 inches Hg (1018.4 mb)
[Sea-level pressure: 1018.1 mb]
Winds: from the SE (130 degrees) at 12 MPH (10 knots; 5.2 m/s)
Visibility: 10 or more miles (16+ km)
Ceiling: at least 12,000 feet AGL
Clouds: sky clear below 12,000 feet AGL
Present Weather: no significant weather observed at this time
KSRQ 290253Z 13010KT 10SM CLR 27/19 A3007 RMK AO2 SLP181 T02670194 51020

Conditions at: KSRQ observed 29 April 2017  01:53 UTC
Temperature: 26.1°C (79°F)
Dewpoint: 21.1°C (70°F) [RH = 74%]
Pressure (altimeter): 30.05 inches Hg (1017.7 mb)
[Sea-level pressure: 1017.6 mb]
Winds: from the ESE (110 degrees) at 5 MPH (4 knots; 2.1 m/s)
Visibility: 10 or more miles (16+ km)
Ceiling: at least 12,000 feet AGL
Clouds: few clouds at 4400 feet AGL
Present Weather: no significant weather observed at this time
KSRQ 290153Z 11004KT 10SM FEW044 26/21 A3005 RMK AO2 SLP176 T02610211

Conditions at: KSRQ observed 29 April 2017  00:53 UTC
Temperature: 27.8°C (82°F)
Dewpoint: 21.7°C (71°F) [RH = 69%]
Pressure (altimeter): 30.03 inches Hg (1017.0 mb)
[Sea-level pressure: 1016.9 mb]
Winds: from the S (180 degrees) at 5 MPH (4 knots; 2.1 m/s)
Visibility: 10 or more miles (16+ km)
Ceiling: 6000 feet AGL
Clouds: broken clouds at 6000 feet AGL
broken clouds at 8000 feet AGL
Present Weather: no significant weather observed at this time
KSRQ 290053Z 18004KT 10SM BKN060 BKN080 28/22 A3003 RMK AO2 SLP169 T02780217

Conditions at: KSRQ observed 28 April 2017  23:53 UTC
Temperature: 27.8°C (82°F)
Dewpoint: 21.1°C (70°F) [RH = 67%]
Pressure (altimeter): 30.01 inches Hg (1016.3 mb)
[Sea-level pressure: 1016.1 mb]
Winds: from the SSW (200 degrees) at 8 MPH (7 knots; 3.6 m/s)
Visibility: 10 or more miles (16+ km)
Ceiling: at least 12,000 feet AGL
Clouds: sky clear below 12,000 feet AGL
Present Weather: no significant weather observed at this time
KSRQ 282353Z 20007KT 10SM CLR 28/21 A3001 RMK AO2 SLP161 T02780211 10317 20278 53008

Conditions at: KSRQ observed 28 April 2017  22:53 UTC
Temperature: 28.3°C (83°F)
Dewpoint: 21.7°C (71°F) [RH = 67%]
Pressure (altimeter): 30.00 inches Hg (1016.0 mb)
[Sea-level pressure: 1015.8 mb]
Winds: from the SSW (200 degrees) at 7 MPH (6 knots; 3.1 m/s)
Visibility: 10 or more miles (16+ km)
Ceiling: at least 12,000 feet AGL
Clouds: sky clear below 12,000 feet AGL
Present Weather: no significant weather observed at this time
KSRQ 282253Z 20006KT 10SM CLR 28/22 A3000 RMK AO2 SLP158 T02830217

Conditions at: KSRQ observed 28 April 2017  21:53 UTC
Temperature: 28.9°C (84°F)
Dewpoint: 21.7°C (71°F) [RH = 65%]
Pressure (altimeter): 29.99 inches Hg (1015.7 mb)
[Sea-level pressure: 1015.5 mb]
Winds: from the SSW (210 degrees) at 12 MPH (10 knots; 5.2 m/s)
Visibility: 10 or more miles (16+ km)
Ceiling: at least 12,000 feet AGL
Clouds: sky clear below 12,000 feet AGL
Present Weather: automated observation with no human augmentation;
there may or may not be significant weather present at this time
KSRQ 282153Z AUTO 21010KT 10SM CLR 29/22 A2999 RMK AO2 SLP155 T02890217

Conditions at: KSRQ observed 28 April 2017  20:53 UTC
Temperature: 30.0°C (86°F)
Dewpoint: 21.7°C (71°F) [RH = 61%]
Pressure (altimeter): 29.98 inches Hg (1015.3 mb)
[Sea-level pressure: 1015.3 mb]
Winds: from the SW (220 degrees) at 15 MPH (13 knots; 6.8 m/s)
Visibility: 10 or more miles (16+ km)
Ceiling: at least 12,000 feet AGL
Clouds: sky clear below 12,000 feet AGL
Present Weather: automated observation with no human augmentation;
there may or may not be significant weather present at this time
KSRQ 282053Z AUTO 22013KT 10SM CLR 30/22 A2998 RMK AO2 SLP153 T03000217 56015

Conditions at: KSRQ observed 28 April 2017  19:53 UTC
Temperature: 31.1°C (88°F)
Dewpoint: 20.6°C (69°F) [RH = 54%]
Pressure (altimeter): 29.99 inches Hg (1015.7 mb)
[Sea-level pressure: 1015.6 mb]
Winds: from the SSW (210 degrees) at 16 MPH (14 knots; 7.3 m/s)
Visibility: 10 or more miles (16+ km)
Ceiling: at least 12,000 feet AGL
Clouds: sky clear below 12,000 feet AGL
Present Weather: automated observation with no human augmentation;
there may or may not be significant weather present at this time
KSRQ 281953Z AUTO 21014KT 10SM CLR 31/21 A2999 RMK AO2 SLP156 T03110206

Conditions at: KSRQ observed 28 April 2017  18:53 UTC
Temperature: 31.1°C (88°F)
Dewpoint: 21.7°C (71°F) [RH = 57%]
Pressure (altimeter): 30.01 inches Hg (1016.3 mb)
[Sea-level pressure: 1016.1 mb]
Winds: from the SSW (210 degrees) at 16 MPH (14 knots; 7.3 m/s)
Visibility: 10 or more miles (16+ km)
Ceiling: at least 12,000 feet AGL
Clouds: sky clear below 12,000 feet AGL
Present Weather: automated observation with no human augmentation;
there may or may not be significant weather present at this time
KSRQ 281853Z AUTO 21014KT 10SM CLR 31/22 A3001 RMK AO2 SLP161 T03110217

Conditions at: KSRQ observed 28 April 2017  17:53 UTC
Temperature: 31.1°C (88°F)
Dewpoint: 21.7°C (71°F) [RH = 57%]
Pressure (altimeter): 30.03 inches Hg (1017.0 mb)
[Sea-level pressure: 1016.7 mb]
Winds: from the SSW (210 degrees) at 14 MPH (12 knots; 6.2 m/s)
Visibility: 10 or more miles (16+ km)
Ceiling: at least 12,000 feet AGL
Clouds: sky clear below 12,000 feet AGL
Present Weather: no significant weather observed at this time
KSRQ 281753Z 21012KT 10SM CLR 31/22 A3003 RMK AO2 SLP167 T03110217 10317 20228 58012

Conditions at: KSRQ observed 28 April 2017  16:53 UTC
Temperature: 30.0°C (86°F)
Dewpoint: 22.2°C (72°F) [RH = 63%]
Pressure (altimeter): 30.04 inches Hg (1017.4 mb)
[Sea-level pressure: 1017.2 mb]
Winds: from the WSW (240 degrees) at 10 MPH (9 knots; 4.7 m/s)
Visibility: 10 or more miles (16+ km)
Ceiling: at least 12,000 feet AGL
Clouds: scattered clouds at 4000 feet AGL
Present Weather: no significant weather observed at this time
KSRQ 281653Z 24009KT 10SM SCT040 30/22 A3004 RMK AO2 SLP172 T03000222

Conditions at: KSRQ observed 28 April 2017  15:53 UTC
Temperature: 30.6°C (87°F)
Dewpoint: 21.7°C (71°F) [RH = 59%]
Pressure (altimeter): 30.05 inches Hg (1017.7 mb)
[Sea-level pressure: 1017.6 mb]
Winds: from the SSE (150 degrees) at 8 MPH (7 knots; 3.6 m/s)
Visibility: 10 or more miles (16+ km)
Ceiling: at least 12,000 feet AGL
Clouds: few clouds at 2100 feet AGL
Present Weather: no significant weather observed at this time
KSRQ 281553Z 15007KT 120V180 10SM FEW021 31/22 A3005 RMK AO2 SLP176 T03060217

Conditions at: KSRQ observed 28 April 2017  15:11 UTC
Temperature: 28.3°C (83°F)
Dewpoint: 21.7°C (71°F) [RH = 67%]
Pressure (altimeter): 30.06 inches Hg (1018.0 mb)
Winds: from the SSE (150 degrees) at 10 MPH (9 knots; 4.7 m/s)
Visibility: 10 or more miles (16+ km)
Ceiling: at least 12,000 feet AGL
Clouds: scattered clouds at 1400 feet AGL
Present Weather: no significant weather observed at this time
KSRQ 281511Z 15009KT 10SM SCT014 28/22 A3006 RMK AO2 T02830217